createdAt,value
2023-05-04T00:00:35.835Z,13.40
2023-05-04T00:03:05.274Z,13.40
2023-05-04T00:05:34.047Z,13.40
2023-05-04T00:08:01.987Z,13.20
2023-05-04T00:10:29.940Z,13.10
2023-05-04T00:12:57.976Z,13.20
2023-05-04T00:15:26.224Z,13.10
2023-05-04T00:17:54.933Z,13.10
2023-05-04T00:20:24.296Z,13.10
2023-05-04T00:22:52.276Z,12.80
2023-05-04T00:25:20.363Z,12.80
2023-05-04T00:27:48.460Z,12.60
2023-05-04T00:30:16.814Z,12.20
2023-05-04T00:32:44.764Z,11.80
2023-05-04T00:35:12.945Z,11.90
2023-05-04T00:37:43.754Z,12.20
2023-05-04T00:40:12.414Z,12.20
2023-05-04T00:42:40.396Z,12.30
2023-05-04T00:45:09.262Z,12.30
2023-05-04T00:47:37.587Z,12.10
2023-05-04T00:50:06.998Z,12.00
2023-05-04T00:52:36.254Z,12.10
2023-05-04T00:55:06.392Z,12.30
2023-05-04T00:57:34.496Z,12.20
2023-05-04T01:00:02.728Z,12.30
2023-05-04T01:02:31.147Z,12.30
2023-05-04T01:04:59.143Z,12.20
2023-05-04T01:07:32.812Z,12.40
2023-05-04T01:10:05.819Z,12.50
2023-05-04T01:12:40.056Z,12.60
2023-05-04T01:15:10.754Z,12.70
2023-05-04T01:17:39.175Z,12.70
2023-05-04T01:20:09.513Z,12.80
2023-05-04T01:22:39.777Z,12.70
2023-05-04T01:25:09.197Z,12.80
2023-05-04T01:27:46.024Z,12.70
2023-05-04T01:30:19.931Z,12.60
2023-05-04T01:32:48.986Z,12.10
2023-05-04T01:35:17.790Z,11.80
2023-05-04T01:37:47.104Z,11.80
2023-05-04T01:40:15.741Z,11.70
2023-05-04T01:42:43.763Z,11.80
2023-05-04T01:45:12.720Z,11.90
2023-05-04T01:47:40.710Z,11.80
2023-05-04T01:50:09.504Z,11.90
2023-05-04T01:52:37.553Z,12.00
2023-05-04T01:55:07.499Z,11.60
2023-05-04T01:57:35.529Z,11.60
2023-05-04T02:00:04.189Z,11.50
2023-05-04T02:02:32.373Z,11.40
2023-05-04T02:05:00.435Z,11.40
2023-05-04T02:07:28.396Z,11.20
2023-05-04T02:09:56.573Z,11.10
2023-05-04T02:12:25.884Z,11.20
2023-05-04T02:14:54.066Z,11.10
2023-05-04T02:17:22.028Z,11.30
2023-05-04T02:19:50.022Z,11.20
2023-05-04T02:22:18.042Z,11.20
2023-05-04T02:24:46.024Z,11.20
2023-05-04T02:27:14.055Z,11.10
2023-05-04T02:29:43.360Z,11.00
2023-05-04T02:32:11.333Z,11.00
2023-05-04T02:34:39.305Z,11.00
2023-05-04T02:37:07.691Z,11.00
2023-05-04T02:39:35.744Z,10.90
2023-05-04T02:42:04.152Z,10.90
2023-05-04T02:44:32.213Z,10.90
2023-05-04T02:47:02.134Z,10.80
2023-05-04T02:49:30.111Z,10.80
2023-05-04T02:51:58.103Z,10.90
2023-05-04T02:54:26.151Z,11.00
2023-05-04T02:56:54.091Z,11.00
2023-05-04T02:59:22.033Z,11.20
2023-05-04T03:01:50.049Z,11.20
2023-05-04T03:04:19.493Z,11.10
2023-05-04T03:06:47.516Z,11.10
2023-05-04T03:09:15.528Z,11.00
2023-05-04T03:11:43.556Z,11.00
2023-05-04T03:14:11.524Z,10.90
2023-05-04T03:16:39.599Z,10.90
2023-05-04T03:19:07.665Z,10.80
2023-05-04T03:21:36.983Z,10.80
2023-05-04T03:24:05.417Z,10.80
2023-05-04T03:26:33.377Z,10.80
2023-05-04T03:29:01.322Z,10.90
2023-05-04T03:31:29.374Z,10.80
2023-05-04T03:33:57.391Z,10.80
2023-05-04T03:36:25.333Z,10.70
2023-05-04T03:38:54.709Z,10.70
2023-05-04T03:41:22.845Z,10.70
2023-05-04T03:43:51.262Z,10.70
2023-05-04T03:46:19.310Z,10.80
2023-05-04T03:48:47.679Z,10.70
2023-05-04T03:51:15.803Z,10.60
2023-05-04T03:53:45.003Z,10.70
2023-05-04T03:56:14.417Z,10.50
2023-05-04T03:58:42.377Z,10.60
2023-05-04T04:01:10.535Z,10.60
2023-05-04T04:03:39.146Z,10.60
2023-05-04T04:06:08.626Z,10.50
2023-05-04T04:08:36.929Z,10.50
2023-05-04T04:11:04.979Z,10.40
2023-05-04T04:13:34.338Z,10.50
2023-05-04T04:16:02.335Z,10.50
2023-05-04T04:18:30.327Z,10.60
2023-05-04T04:20:58.337Z,10.60
2023-05-04T04:23:26.420Z,10.50
2023-05-04T04:25:54.834Z,10.50
2023-05-04T04:28:22.997Z,10.50
2023-05-04T04:30:52.303Z,10.40
2023-05-04T04:33:20.295Z,10.40
2023-05-04T04:35:48.683Z,10.40
2023-05-04T04:38:16.677Z,10.40
2023-05-04T04:40:46.648Z,10.50
2023-05-04T04:43:14.957Z,10.40
2023-05-04T04:45:42.956Z,10.40
2023-05-04T04:48:12.880Z,10.40
2023-05-04T04:50:41.011Z,10.40
2023-05-04T04:53:08.974Z,10.40
2023-05-04T04:55:37.000Z,10.50
2023-05-04T04:58:04.975Z,10.50
2023-05-04T05:00:33.035Z,10.60
2023-05-04T05:03:01.106Z,10.70
2023-05-04T05:05:31.818Z,10.70
2023-05-04T05:08:00.051Z,10.80
2023-05-04T05:10:28.123Z,10.90
2023-05-04T05:12:56.301Z,10.90
2023-05-04T05:15:24.486Z,10.90
2023-05-04T05:17:52.568Z,10.90
2023-05-04T05:20:21.387Z,10.90
2023-05-04T05:22:51.668Z,10.90
2023-05-04T05:25:20.242Z,10.90
2023-05-04T05:27:48.466Z,11.00
2023-05-04T05:30:16.913Z,11.10
2023-05-04T05:32:45.958Z,11.10
2023-05-04T05:35:15.858Z,11.20
2023-05-04T05:37:43.806Z,11.20
2023-05-04T05:40:14.192Z,11.10
2023-05-04T05:42:42.889Z,11.30
2023-05-04T05:45:11.979Z,11.20
2023-05-04T05:47:39.991Z,11.20
2023-05-04T05:50:08.907Z,11.20
2023-05-04T05:52:36.860Z,11.30
2023-05-04T05:55:05.141Z,11.40
2023-05-04T05:57:34.503Z,11.40
2023-05-04T06:00:02.698Z,11.40
2023-05-04T06:02:30.988Z,11.40
2023-05-04T06:04:59.322Z,11.60
2023-05-04T06:07:27.479Z,11.70
2023-05-04T06:09:55.471Z,11.70
2023-05-04T06:12:23.493Z,11.70
2023-05-04T06:14:54.655Z,11.70
2023-05-04T06:17:22.758Z,11.60
2023-05-04T06:19:51.420Z,11.50
2023-05-04T06:22:19.470Z,11.60
2023-05-04T06:24:47.702Z,11.60
2023-05-04T06:27:15.661Z,11.70
2023-05-04T06:29:43.641Z,11.90
2023-05-04T06:32:13.107Z,12.00
2023-05-04T06:34:41.200Z,12.20
2023-05-04T06:37:09.665Z,12.30
2023-05-04T06:39:37.971Z,12.40
2023-05-04T06:42:06.345Z,12.50
2023-05-04T06:44:37.351Z,12.60
2023-05-04T06:47:05.361Z,12.60
2023-05-04T06:49:35.150Z,12.70
2023-05-04T06:52:03.103Z,12.80
2023-05-04T06:54:31.789Z,12.90
2023-05-04T06:56:59.826Z,12.90
2023-05-04T06:59:27.779Z,13.00
2023-05-04T07:01:55.773Z,13.10
2023-05-04T07:04:23.877Z,13.10
2023-05-04T07:06:53.524Z,13.20
2023-05-04T07:09:22.258Z,13.20
2023-05-04T07:11:50.293Z,13.20
2023-05-04T07:14:18.456Z,13.30
2023-05-04T07:16:46.482Z,13.40
2023-05-04T07:19:14.470Z,13.50
2023-05-04T07:21:42.778Z,13.60
2023-05-04T07:24:12.343Z,13.60
2023-05-04T07:26:40.278Z,13.60
2023-05-04T07:29:08.243Z,13.70
2023-05-04T07:31:36.573Z,13.70
2023-05-04T07:34:04.554Z,13.80
2023-05-04T07:36:35.618Z,13.90
2023-05-04T07:39:03.738Z,13.90
2023-05-04T07:41:33.101Z,14.00
2023-05-04T07:44:01.334Z,14.10
2023-05-04T07:46:29.341Z,14.10
2023-05-04T07:48:57.480Z,14.20
2023-05-04T07:51:25.444Z,14.30
2023-05-04T07:53:53.505Z,14.30
2023-05-04T07:56:21.445Z,14.40
2023-05-04T07:58:50.785Z,14.40
2023-05-04T08:01:18.760Z,14.50
2023-05-04T08:03:46.818Z,14.50
2023-05-04T08:06:14.818Z,14.60
2023-05-04T08:08:44.431Z,14.70
2023-05-04T08:11:20.089Z,14.70
2023-05-04T08:13:50.710Z,14.80
2023-05-04T08:16:18.805Z,14.90
2023-05-04T08:18:46.806Z,15.00
2023-05-04T08:21:15.023Z,15.00
2023-05-04T08:23:43.591Z,15.10
2023-05-04T08:26:11.694Z,15.10
2023-05-04T08:28:41.362Z,15.20
2023-05-04T08:31:11.001Z,15.20
2023-05-04T08:33:39.031Z,15.30
2023-05-04T08:36:09.081Z,15.30
2023-05-04T08:38:37.468Z,15.40
2023-05-04T08:41:05.972Z,15.40
2023-05-04T08:43:36.344Z,15.50
2023-05-04T08:46:05.272Z,15.60
2023-05-04T08:48:35.125Z,15.60
2023-05-04T08:51:04.706Z,15.70
2023-05-04T08:53:33.750Z,15.70
2023-05-04T08:56:04.661Z,15.80
2023-05-04T08:58:37.890Z,15.90
2023-05-04T09:01:08.563Z,15.90
2023-05-04T09:03:39.021Z,16.00
2023-05-04T09:06:09.173Z,16.10
2023-05-04T09:08:37.489Z,16.10
2023-05-04T09:11:06.030Z,16.20
2023-05-04T09:13:34.172Z,16.30
2023-05-04T09:16:03.985Z,16.30
2023-05-04T09:18:41.133Z,16.40
2023-05-04T09:21:09.496Z,16.40
2023-05-04T09:23:47.405Z,16.50
2023-05-04T09:26:15.634Z,16.60
2023-05-04T09:28:43.719Z,16.70
2023-05-04T09:31:12.212Z,16.70
2023-05-04T09:33:41.686Z,16.80
2023-05-04T09:36:21.208Z,16.90
2023-05-04T09:38:49.454Z,16.90
2023-05-04T09:41:17.488Z,17.00
2023-05-04T09:43:46.319Z,17.10
2023-05-04T09:46:18.584Z,17.20
2023-05-04T09:48:55.220Z,17.30
2023-05-04T09:51:24.977Z,17.30
2023-05-04T09:53:54.044Z,17.40
2023-05-04T09:56:32.872Z,17.40
2023-05-04T09:59:00.993Z,17.50
2023-05-04T10:01:30.709Z,17.60
2023-05-04T10:04:00.907Z,17.60
2023-05-04T10:06:31.369Z,17.70
2023-05-04T10:09:01.541Z,17.70
2023-05-04T10:11:30.923Z,17.80
2023-05-04T10:13:59.290Z,17.80
2023-05-04T10:16:34.588Z,17.90
2023-05-04T10:19:29.695Z,17.90
2023-05-04T10:22:10.400Z,17.90
2023-05-04T10:25:05.717Z,18.00
2023-05-04T10:27:44.558Z,18.00
2023-05-04T10:30:14.848Z,18.10
2023-05-04T10:32:43.243Z,18.20
2023-05-04T10:35:12.921Z,18.20
2023-05-04T10:37:54.376Z,18.30
2023-05-04T10:40:37.468Z,18.40
2023-05-04T10:43:06.023Z,18.40
2023-05-04T10:45:38.495Z,18.40
2023-05-04T10:48:07.925Z,18.50
2023-05-04T10:50:47.711Z,18.50
2023-05-04T10:53:17.382Z,18.60
2023-05-04T10:55:46.894Z,18.60
2023-05-04T10:58:16.901Z,18.60
2023-05-04T11:00:47.396Z,18.70
2023-05-04T11:03:15.861Z,18.70
2023-05-04T11:05:46.978Z,18.80
2023-05-04T11:08:19.778Z,18.90
2023-05-04T11:10:48.428Z,19.00
2023-05-04T11:13:17.259Z,19.00
2023-05-04T11:15:49.013Z,19.10
2023-05-04T11:18:26.516Z,19.10
2023-05-04T11:20:56.195Z,19.20
2023-05-04T11:23:24.542Z,19.20
2023-05-04T11:25:52.853Z,19.30
2023-05-04T11:28:20.902Z,19.30
2023-05-04T11:30:48.841Z,19.30
2023-05-04T11:33:17.231Z,19.30
2023-05-04T11:35:45.947Z,19.40
2023-05-04T11:38:20.357Z,19.50
2023-05-04T11:40:49.817Z,19.50
2023-05-04T11:43:18.374Z,19.50
2023-05-04T11:45:49.588Z,19.60
2023-05-04T11:48:18.710Z,19.60
2023-05-04T11:50:48.165Z,19.70
2023-05-04T11:53:21.581Z,19.70
2023-05-04T11:55:49.677Z,19.80
2023-05-04T11:58:25.675Z,19.80
2023-05-04T12:00:56.992Z,19.80
2023-05-04T12:03:32.560Z,19.90
2023-05-04T12:06:11.655Z,20.00
2023-05-04T12:08:43.004Z,20.00
2023-05-04T12:11:13.202Z,20.00
2023-05-04T12:13:43.088Z,20.10
2023-05-04T12:16:12.581Z,20.10
2023-05-04T12:18:40.905Z,20.20
2023-05-04T12:21:10.247Z,20.20
2023-05-04T12:23:38.379Z,20.30
2023-05-04T12:26:08.697Z,20.30
2023-05-04T12:28:37.785Z,20.40
2023-05-04T12:31:06.925Z,20.40
2023-05-04T12:33:36.149Z,20.40
2023-05-04T12:36:05.993Z,20.50
2023-05-04T12:38:34.916Z,20.50
2023-05-04T12:41:04.482Z,20.60
2023-05-04T12:43:34.196Z,20.60
2023-05-04T12:46:02.300Z,20.60
2023-05-04T12:48:32.849Z,20.70
2023-05-04T12:51:01.764Z,20.70
2023-05-04T12:53:32.132Z,20.80
2023-05-04T12:56:01.334Z,20.80
2023-05-04T12:58:29.512Z,20.90
2023-05-04T13:00:59.048Z,20.90
2023-05-04T13:03:27.260Z,20.90
2023-05-04T13:05:56.272Z,21.00
2023-05-04T13:08:24.267Z,21.10
2023-05-04T13:10:52.628Z,21.10
2023-05-04T13:13:23.100Z,21.20
2023-05-04T13:15:53.908Z,21.20
2023-05-04T13:18:26.991Z,21.30
2023-05-04T13:20:55.032Z,21.40
2023-05-04T13:23:23.037Z,21.40
2023-05-04T13:25:51.505Z,21.40
2023-05-04T13:28:19.827Z,21.50
2023-05-04T13:30:48.304Z,21.50
2023-05-04T13:33:27.871Z,21.60
2023-05-04T13:35:59.080Z,21.60
2023-05-04T13:38:27.241Z,21.70
2023-05-04T13:40:55.368Z,21.80
2023-05-04T13:43:23.805Z,21.80
2023-05-04T13:45:52.423Z,21.80
2023-05-04T13:48:22.453Z,21.80
2023-05-04T13:50:50.416Z,21.80
2023-05-04T13:53:19.736Z,21.90
2023-05-04T13:55:48.383Z,21.90
2023-05-04T13:58:16.387Z,22.00
2023-05-04T14:00:44.401Z,22.00
2023-05-04T14:03:12.747Z,22.10
2023-05-04T14:05:40.924Z,22.10
2023-05-04T14:08:09.287Z,22.10
2023-05-04T14:10:38.622Z,22.20
2023-05-04T14:13:07.131Z,22.20
2023-05-04T14:15:35.183Z,22.40
2023-05-04T14:18:03.201Z,22.50
2023-05-04T14:20:31.235Z,22.60
2023-05-04T14:22:59.237Z,23.00
2023-05-04T14:25:27.256Z,23.50
2023-05-04T14:27:56.589Z,24.40
2023-05-04T14:30:24.744Z,25.50
2023-05-04T14:32:54.732Z,26.50
2023-05-04T14:35:22.982Z,27.20
2023-05-04T14:37:51.023Z,27.70
2023-05-04T14:40:18.965Z,27.70
2023-05-04T14:42:47.136Z,28.00
2023-05-04T14:45:17.276Z,28.20
2023-05-04T14:47:45.526Z,28.70
2023-05-04T14:50:14.207Z,29.10
2023-05-04T14:52:42.235Z,29.40
2023-05-04T14:55:10.924Z,29.60
2023-05-04T14:57:38.874Z,29.70
2023-05-04T15:00:09.551Z,29.60
2023-05-04T15:02:39.566Z,29.60
2023-05-04T15:05:10.381Z,29.70
2023-05-04T15:07:38.386Z,29.90
2023-05-04T15:10:08.174Z,30.10
2023-05-04T15:12:37.778Z,30.10
2023-05-04T15:15:06.724Z,30.10
2023-05-04T15:17:34.741Z,30.10
2023-05-04T15:20:05.235Z,30.00
2023-05-04T15:22:33.765Z,29.70
2023-05-04T15:25:01.977Z,29.20
2023-05-04T15:27:30.092Z,28.80
2023-05-04T15:29:58.136Z,28.30
2023-05-04T15:32:26.146Z,27.80
2023-05-04T15:35:04.722Z,27.50
2023-05-04T15:37:35.734Z,27.20
2023-05-04T15:40:04.663Z,26.90
2023-05-04T15:42:33.064Z,26.60
2023-05-04T15:45:01.282Z,26.20
2023-05-04T15:47:29.317Z,25.90
2023-05-04T15:49:57.334Z,25.70
2023-05-04T15:52:25.511Z,25.40
2023-05-04T15:54:54.835Z,25.10
2023-05-04T15:57:22.962Z,24.80
2023-05-04T15:59:50.926Z,24.60
2023-05-04T16:02:19.089Z,24.40
2023-05-04T16:04:47.138Z,24.10
2023-05-04T16:07:15.342Z,24.10
2023-05-04T16:09:43.316Z,23.90
2023-05-04T16:12:12.634Z,23.70
2023-05-04T16:14:40.786Z,23.60
2023-05-04T16:17:09.354Z,23.50
2023-05-04T16:19:37.362Z,23.40
2023-05-04T16:22:05.334Z,23.30
2023-05-04T16:24:34.043Z,23.20
2023-05-04T16:27:02.084Z,23.10
2023-05-04T16:29:31.396Z,23.00
2023-05-04T16:31:59.363Z,23.00
2023-05-04T16:34:27.391Z,22.90
2023-05-04T16:36:57.369Z,22.90
2023-05-04T16:39:30.149Z,22.70
2023-05-04T16:41:58.469Z,22.70
2023-05-04T16:44:26.547Z,22.60
2023-05-04T16:46:55.903Z,22.60
2023-05-04T16:49:24.155Z,22.50
2023-05-04T16:51:53.529Z,22.50
2023-05-04T16:54:22.143Z,22.40
2023-05-04T16:56:50.227Z,22.30
2023-05-04T16:59:18.177Z,22.30
2023-05-04T17:01:47.080Z,22.20
2023-05-04T17:04:16.561Z,22.20
2023-05-04T17:06:44.554Z,22.10
2023-05-04T17:09:12.519Z,22.10
2023-05-04T17:11:40.584Z,22.00
2023-05-04T17:14:08.580Z,21.90
2023-05-04T17:16:36.629Z,21.90
2023-05-04T17:19:04.671Z,21.80
2023-05-04T17:21:34.008Z,21.80
2023-05-04T17:24:01.973Z,21.80
2023-05-04T17:26:30.030Z,21.80
2023-05-04T17:28:58.184Z,21.70
2023-05-04T17:31:26.251Z,21.60
2023-05-04T17:33:54.325Z,21.60
2023-05-04T17:36:22.395Z,21.50
2023-05-04T17:38:51.733Z,21.50
2023-05-04T17:41:19.759Z,21.40
2023-05-04T17:43:50.209Z,21.40
2023-05-04T17:46:18.380Z,21.40
2023-05-04T17:48:46.505Z,21.30
2023-05-04T17:51:14.492Z,21.30
2023-05-04T17:53:42.451Z,21.20
2023-05-04T17:56:11.786Z,21.20
2023-05-04T17:58:39.885Z,21.10
2023-05-04T18:01:07.858Z,21.10
2023-05-04T18:03:36.012Z,20.90
2023-05-04T18:06:04.099Z,20.90
2023-05-04T18:08:32.080Z,20.80
2023-05-04T18:11:00.051Z,20.80
2023-05-04T18:13:29.437Z,20.80
2023-05-04T18:15:57.472Z,20.70
2023-05-04T18:18:25.632Z,20.60
2023-05-04T18:20:53.604Z,20.50
2023-05-04T18:23:21.724Z,20.40
2023-05-04T18:25:49.718Z,20.30
2023-05-04T18:28:17.808Z,20.20
2023-05-04T18:30:47.271Z,20.10
2023-05-04T18:33:15.280Z,20.10
2023-05-04T18:35:43.390Z,20.10
2023-05-04T18:38:11.429Z,20.00
2023-05-04T18:40:39.375Z,20.00
2023-05-04T18:43:07.343Z,20.00
2023-05-04T18:45:35.504Z,19.90
2023-05-04T18:48:05.189Z,19.90
2023-05-04T18:50:33.194Z,19.80
2023-05-04T18:53:01.419Z,19.80
2023-05-04T18:55:29.534Z,19.70
2023-05-04T18:57:57.526Z,19.70
2023-05-04T19:00:25.608Z,19.60
2023-05-04T19:02:53.636Z,19.60
2023-05-04T19:05:23.050Z,19.50
2023-05-04T19:07:50.988Z,19.50
2023-05-04T19:10:19.354Z,19.40
2023-05-04T19:12:47.395Z,19.40
2023-05-04T19:15:15.480Z,19.40
2023-05-04T19:17:43.468Z,19.30
2023-05-04T19:20:12.035Z,19.20
2023-05-04T19:22:41.392Z,19.00
2023-05-04T19:25:12.281Z,19.10
2023-05-04T19:27:43.667Z,19.00
2023-05-04T19:30:12.084Z,19.00
2023-05-04T19:32:40.102Z,19.00
2023-05-04T19:35:09.050Z,19.00
2023-05-04T19:37:37.672Z,19.10
2023-05-04T19:40:08.981Z,19.10
2023-05-04T19:42:37.377Z,19.10
2023-05-04T19:45:06.271Z,19.20
2023-05-04T19:47:34.305Z,19.10
2023-05-04T19:50:02.379Z,19.10
2023-05-04T19:52:30.425Z,19.10
2023-05-04T19:54:58.423Z,19.00
2023-05-04T19:57:27.852Z,19.00
2023-05-04T19:59:57.495Z,18.80
2023-05-04T20:02:25.996Z,18.70
2023-05-04T20:04:54.231Z,18.70
2023-05-04T20:07:22.210Z,18.70
2023-05-04T20:09:50.195Z,18.70
2023-05-04T20:12:18.158Z,18.70
2023-05-04T20:14:47.530Z,18.60
2023-05-04T20:17:15.924Z,18.50
2023-05-04T20:19:44.064Z,18.50
2023-05-04T20:22:12.037Z,18.50
2023-05-04T20:24:40.796Z,18.40
2023-05-04T20:27:08.895Z,18.40
2023-05-04T20:29:36.827Z,18.40
2023-05-04T20:32:07.337Z,18.40
2023-05-04T20:34:35.953Z,18.30
2023-05-04T20:37:03.934Z,18.20
2023-05-04T20:39:32.376Z,18.20
2023-05-04T20:42:00.437Z,18.10
2023-05-04T20:44:28.900Z,18.10
2023-05-04T20:46:57.005Z,18.20
2023-05-04T20:49:26.377Z,18.20
2023-05-04T20:51:54.337Z,18.10
2023-05-04T20:54:22.446Z,18.10
2023-05-04T20:56:50.460Z,18.00
2023-05-04T20:59:20.425Z,18.00
2023-05-04T21:01:48.396Z,18.00
2023-05-04T21:04:16.962Z,17.90
2023-05-04T21:06:48.226Z,17.80
2023-05-04T21:09:16.543Z,17.80
2023-05-04T21:11:44.551Z,17.80
2023-05-04T21:14:12.562Z,17.70
2023-05-04T21:16:40.504Z,17.70
2023-05-04T21:19:08.467Z,17.70
2023-05-04T21:21:40.702Z,17.70
2023-05-04T21:24:13.571Z,17.60
2023-05-04T21:26:42.285Z,17.60
2023-05-04T21:29:13.446Z,17.60
2023-05-04T21:31:42.163Z,17.50
2023-05-04T21:34:10.429Z,17.50
2023-05-04T21:36:40.415Z,17.40
2023-05-04T21:39:08.484Z,17.40
2023-05-04T21:41:37.786Z,17.40
2023-05-04T21:44:06.012Z,17.30
2023-05-04T21:46:34.026Z,17.30
2023-05-04T21:49:02.037Z,17.30
2023-05-04T21:51:30.208Z,17.20
2023-05-04T21:53:58.215Z,17.10
2023-05-04T21:56:26.375Z,17.10
2023-05-04T21:58:56.109Z,17.10
2023-05-04T22:01:24.385Z,17.00
2023-05-04T22:03:53.080Z,17.00
2023-05-04T22:06:22.180Z,16.90
2023-05-04T22:08:50.267Z,16.90
2023-05-04T22:11:18.343Z,16.90
2023-05-04T22:13:46.551Z,16.90
2023-05-04T22:16:16.031Z,16.90
2023-05-04T22:18:44.169Z,16.80
2023-05-04T22:21:12.521Z,16.80
2023-05-04T22:23:45.440Z,16.70
2023-05-04T22:26:13.427Z,16.70
2023-05-04T22:28:41.535Z,16.70
2023-05-04T22:31:09.568Z,16.70
2023-05-04T22:33:38.923Z,16.60
2023-05-04T22:36:07.185Z,16.60
2023-05-04T22:38:35.164Z,16.60
2023-05-04T22:41:03.233Z,16.60
2023-05-04T22:43:31.233Z,16.50
2023-05-04T22:45:59.274Z,16.50
2023-05-04T22:48:27.254Z,16.40
2023-05-04T22:50:56.672Z,16.40
2023-05-04T22:53:24.907Z,16.40
2023-05-04T22:55:53.047Z,16.40
2023-05-04T22:58:21.011Z,16.40
2023-05-04T23:00:48.958Z,16.30
2023-05-04T23:03:17.682Z,16.30
2023-05-04T23:05:45.791Z,16.30
2023-05-04T23:08:15.142Z,16.20
2023-05-04T23:10:45.823Z,16.20
2023-05-04T23:13:14.064Z,16.10
2023-05-04T23:15:42.160Z,16.10
2023-05-04T23:18:10.195Z,16.10
2023-05-04T23:20:38.713Z,16.10
2023-05-04T23:23:06.751Z,16.10
2023-05-04T23:25:36.430Z,16.00
2023-05-04T23:28:04.711Z,16.00
2023-05-04T23:30:32.656Z,16.00
2023-05-04T23:33:00.898Z,16.00
2023-05-04T23:35:28.971Z,16.00
2023-05-04T23:37:56.953Z,15.90
2023-05-04T23:40:24.984Z,15.90
2023-05-04T23:42:54.312Z,15.90
2023-05-04T23:45:22.447Z,15.80
2023-05-04T23:47:50.468Z,15.80
2023-05-04T23:50:18.549Z,15.80
2023-05-04T23:52:46.558Z,15.70
2023-05-04T23:55:14.547Z,15.70
2023-05-04T23:57:44.556Z,15.60
